createdAt,value
2019-05-10T00:02:10.062Z,1.70
2019-05-10T00:04:55.557Z,1.80
2019-05-10T00:07:41.135Z,1.80
2019-05-10T00:10:07.822Z,1.97
2019-05-10T00:12:49.228Z,2.00
2019-05-10T00:15:20.178Z,1.70
2019-05-10T00:17:47.252Z,2.00
2019-05-10T00:20:14.324Z,1.90
2019-05-10T00:22:41.431Z,2.17
2019-05-10T00:25:08.515Z,2.37
2019-05-10T00:27:35.588Z,1.90
2019-05-10T00:30:03.089Z,2.20
2019-05-10T00:32:30.166Z,1.73
2019-05-10T00:34:57.238Z,2.07
2019-05-10T00:37:24.341Z,1.63
2019-05-10T00:39:51.430Z,1.60
2019-05-10T00:42:18.503Z,1.80
2019-05-10T00:44:45.574Z,1.67
2019-05-10T00:47:12.650Z,1.73
2019-05-10T00:49:39.727Z,1.40
2019-05-10T00:52:08.602Z,1.47
2019-05-10T00:54:35.726Z,1.90
2019-05-10T00:57:02.790Z,2.10
2019-05-10T00:59:29.898Z,1.57
2019-05-10T01:01:56.971Z,2.00
2019-05-10T01:04:24.038Z,1.87
2019-05-10T01:06:51.118Z,1.90
2019-05-10T01:09:18.187Z,1.87
2019-05-10T01:11:45.266Z,1.43
2019-05-10T01:14:12.428Z,1.80
2019-05-10T01:16:39.535Z,1.80
2019-05-10T01:19:06.607Z,1.77
2019-05-10T01:21:33.684Z,2.00
2019-05-10T01:24:01.990Z,1.67
2019-05-10T01:26:30.154Z,2.00
2019-05-10T01:28:57.231Z,1.30
2019-05-10T01:31:24.408Z,1.90
2019-05-10T01:33:51.495Z,1.50
2019-05-10T01:36:22.190Z,1.67
2019-05-10T01:38:49.271Z,2.07
2019-05-10T01:41:16.350Z,1.90
2019-05-10T01:43:43.422Z,1.77
2019-05-10T01:46:10.504Z,2.17
2019-05-10T01:48:37.572Z,1.77
2019-05-10T01:51:04.650Z,1.83
2019-05-10T01:53:32.829Z,2.00
2019-05-10T01:56:00.064Z,2.00
2019-05-10T01:58:27.092Z,1.67
2019-05-10T02:00:54.180Z,1.87
2019-05-10T02:03:21.301Z,1.40
2019-05-10T02:05:48.382Z,1.90
2019-05-10T02:08:15.456Z,1.90
2019-05-10T02:10:42.534Z,1.90
2019-05-10T02:13:09.619Z,1.70
2019-05-10T02:15:37.402Z,2.20
2019-05-10T02:18:04.507Z,1.80
2019-05-10T02:20:31.575Z,2.00
2019-05-10T02:22:58.692Z,1.90
2019-05-10T02:25:25.768Z,1.90
2019-05-10T02:27:52.876Z,1.80
2019-05-10T02:30:20.759Z,2.00
2019-05-10T02:32:47.876Z,1.70
2019-05-10T02:35:15.370Z,1.80
2019-05-10T02:37:42.480Z,2.20
2019-05-10T02:40:09.656Z,2.13
2019-05-10T02:42:36.737Z,2.37
2019-05-10T02:45:04.400Z,2.03
2019-05-10T02:47:31.483Z,2.17
2019-05-10T02:49:59.382Z,2.00
2019-05-10T02:52:26.848Z,2.40
2019-05-10T02:54:54.744Z,2.33
2019-05-10T02:57:22.232Z,2.47
2019-05-10T02:59:49.840Z,2.30
2019-05-10T03:02:17.294Z,1.77
2019-05-10T03:04:45.659Z,2.13
2019-05-10T03:07:15.932Z,1.67
2019-05-10T03:09:47.547Z,1.90
2019-05-10T03:12:25.352Z,2.00
2019-05-10T03:14:54.037Z,1.90
2019-05-10T03:17:21.931Z,2.03
2019-05-10T03:19:51.809Z,2.10
2019-05-10T03:22:20.557Z,2.10
2019-05-10T03:24:47.660Z,2.20
2019-05-10T03:27:14.739Z,2.40
2019-05-10T03:29:41.815Z,1.90
2019-05-10T03:32:10.208Z,2.10
2019-05-10T03:34:37.297Z,2.17
2019-05-10T03:37:04.360Z,2.50
2019-05-10T03:39:31.448Z,2.03
2019-05-10T03:41:59.017Z,2.07
2019-05-10T03:44:26.121Z,2.30
2019-05-10T03:46:53.195Z,2.23
2019-05-10T03:49:20.287Z,2.13
2019-05-10T03:51:47.346Z,2.43
2019-05-10T03:54:14.425Z,2.00
2019-05-10T03:56:41.509Z,2.23
2019-05-10T03:59:08.589Z,2.57
2019-05-10T04:01:35.694Z,2.00
2019-05-10T04:04:03.794Z,2.50
2019-05-10T04:06:30.881Z,2.27
2019-05-10T04:08:57.956Z,2.73
2019-05-10T04:11:25.033Z,2.30
2019-05-10T04:13:52.115Z,2.37
2019-05-10T04:16:19.187Z,2.53
2019-05-10T04:18:48.347Z,2.23
2019-05-10T04:21:15.507Z,2.53
2019-05-10T04:23:42.584Z,2.47
2019-05-10T04:26:09.657Z,2.57
2019-05-10T04:28:36.730Z,2.57
2019-05-10T04:31:05.603Z,2.30
2019-05-10T04:33:32.690Z,2.30
2019-05-10T04:35:59.770Z,3.03
2019-05-10T04:38:26.892Z,2.40
2019-05-10T04:40:53.964Z,2.67
2019-05-10T04:43:21.056Z,2.67
2019-05-10T04:45:48.227Z,2.30
2019-05-10T04:48:15.329Z,2.70
2019-05-10T04:50:42.407Z,2.47
2019-05-10T04:53:11.395Z,2.60
2019-05-10T04:55:38.512Z,2.00
2019-05-10T04:58:05.537Z,2.27
2019-05-10T05:00:32.627Z,2.50
2019-05-10T05:02:59.763Z,2.30
2019-05-10T05:05:26.906Z,2.60
2019-05-10T05:07:53.980Z,2.30
2019-05-10T05:10:21.058Z,2.63
2019-05-10T05:12:48.171Z,2.80
2019-05-10T05:15:15.448Z,2.70
2019-05-10T05:17:43.673Z,2.30
2019-05-10T05:20:10.987Z,2.57
2019-05-10T05:22:38.066Z,2.30
2019-05-10T05:25:05.297Z,2.43
2019-05-10T05:27:32.379Z,2.40
2019-05-10T05:29:59.454Z,2.37
2019-05-10T05:32:26.523Z,2.10
2019-05-10T05:34:53.582Z,2.20
2019-05-10T05:37:20.656Z,2.50
2019-05-10T05:39:47.744Z,2.30
2019-05-10T05:42:14.806Z,2.30
2019-05-10T05:44:41.882Z,2.33
2019-05-10T05:47:09.031Z,2.67
2019-05-10T05:49:36.071Z,2.10
2019-05-10T05:52:03.172Z,2.57
2019-05-10T05:54:30.217Z,2.00
2019-05-10T05:56:57.309Z,2.43
2019-05-10T05:59:26.287Z,2.40
2019-05-10T06:01:53.355Z,2.10
2019-05-10T06:04:20.460Z,2.40
2019-05-10T06:06:47.529Z,2.10
2019-05-10T06:09:14.609Z,2.60
2019-05-10T06:11:41.669Z,2.13
2019-05-10T06:14:11.343Z,2.30
2019-05-10T06:16:37.773Z,2.50
2019-05-10T06:19:04.842Z,2.40
2019-05-10T06:21:31.937Z,2.10
2019-05-10T06:23:59.621Z,1.90
2019-05-10T06:26:28.544Z,2.10
2019-05-10T06:28:59.530Z,2.47
2019-05-10T06:31:24.803Z,2.33
2019-05-10T06:33:51.885Z,2.07
2019-05-10T06:36:18.965Z,2.47
2019-05-10T06:38:51.195Z,2.23
2019-05-10T06:41:19.228Z,2.40
2019-05-10T06:43:51.414Z,2.20
2019-05-10T06:46:15.484Z,2.40
2019-05-10T06:48:42.545Z,2.10
2019-05-10T06:51:12.337Z,2.03
2019-05-10T06:53:42.171Z,1.90
2019-05-10T06:56:07.569Z,2.90
2019-05-10T06:58:36.457Z,2.20
2019-05-10T07:01:03.596Z,2.33
2019-05-10T07:03:30.732Z,1.90
2019-05-10T07:05:57.820Z,2.00
2019-05-10T07:08:24.926Z,1.90
2019-05-10T07:10:51.998Z,1.90
2019-05-10T07:13:19.058Z,2.03
2019-05-10T07:15:46.143Z,2.00
2019-05-10T07:18:16.935Z,1.80
2019-05-10T07:20:43.290Z,1.87
2019-05-10T07:23:10.693Z,1.93
2019-05-10T07:25:43.480Z,1.97
2019-05-10T07:28:09.379Z,2.33
2019-05-10T07:30:41.150Z,2.03
2019-05-10T07:33:06.343Z,1.97
2019-05-10T07:35:36.706Z,1.70
2019-05-10T07:38:02.389Z,2.13
2019-05-10T07:40:29.466Z,2.00
2019-05-10T07:42:56.544Z,2.23
2019-05-10T07:45:25.647Z,2.13
2019-05-10T07:47:54.724Z,2.77
2019-05-10T07:50:21.899Z,2.03
2019-05-10T07:52:50.091Z,1.83
2019-05-10T07:55:18.009Z,2.10
2019-05-10T07:57:46.141Z,2.27
2019-05-10T08:00:13.426Z,2.03
2019-05-10T08:02:44.535Z,1.93
2019-05-10T08:05:14.021Z,1.60
2019-05-10T08:07:40.830Z,1.90
2019-05-10T08:10:08.841Z,1.93
2019-05-10T08:12:41.437Z,1.57
2019-05-10T08:15:08.601Z,1.60
2019-05-10T08:17:41.129Z,1.63
2019-05-10T08:20:20.365Z,1.83
2019-05-10T08:22:44.221Z,1.57
2019-05-10T08:25:09.351Z,1.77
2019-05-10T08:27:36.431Z,1.93
2019-05-10T08:30:20.776Z,1.93
2019-05-10T08:32:34.874Z,2.10
2019-05-10T08:35:05.083Z,2.17
2019-05-10T08:37:37.386Z,2.07
2019-05-10T08:40:02.989Z,1.87
2019-05-10T08:42:43.727Z,1.80
2019-05-10T08:45:03.585Z,2.10
2019-05-10T08:47:28.009Z,1.83
2019-05-10T08:50:12.044Z,1.60
2019-05-10T08:52:30.838Z,1.60
2019-05-10T08:54:55.586Z,1.57
2019-05-10T08:57:22.664Z,1.70
2019-05-10T09:00:02.235Z,1.90
2019-05-10T09:02:28.892Z,1.63
2019-05-10T09:04:52.925Z,2.00
2019-05-10T09:07:20.232Z,1.90
2019-05-10T09:09:50.083Z,1.80
2019-05-10T09:12:16.344Z,1.70
2019-05-10T09:14:44.087Z,1.80
2019-05-10T09:17:14.769Z,1.90
2019-05-10T09:19:41.706Z,2.27
2019-05-10T09:22:09.115Z,1.83
2019-05-10T09:24:43.239Z,1.83
2019-05-10T09:27:05.171Z,2.20
2019-05-10T09:29:37.226Z,1.90
2019-05-10T09:32:06.228Z,1.87
2019-05-10T09:34:32.298Z,1.80
2019-05-10T09:36:59.188Z,1.60
2019-05-10T09:39:26.259Z,1.70
2019-05-10T09:41:53.325Z,1.83
2019-05-10T09:44:22.894Z,1.57
2019-05-10T09:46:52.301Z,1.70
2019-05-10T09:49:19.051Z,1.83
2019-05-10T09:51:46.126Z,1.97
2019-05-10T09:54:13.252Z,1.83
2019-05-10T09:56:44.360Z,2.20
2019-05-10T09:59:09.326Z,1.70
2019-05-10T10:01:37.117Z,2.00
2019-05-10T10:04:04.420Z,1.80
2019-05-10T10:06:31.502Z,1.80
2019-05-10T10:09:00.954Z,1.57
2019-05-10T10:11:27.907Z,1.80
2019-05-10T10:13:59.020Z,2.07
2019-05-10T10:16:23.955Z,1.97
2019-05-10T10:18:51.039Z,1.70
2019-05-10T10:21:26.982Z,2.30
2019-05-10T10:23:47.224Z,2.30
2019-05-10T10:26:20.361Z,2.00
2019-05-10T10:28:43.263Z,1.90
2019-05-10T10:31:10.442Z,1.80
2019-05-10T10:33:42.463Z,1.80
2019-05-10T10:36:10.707Z,1.77
2019-05-10T10:38:45.187Z,1.90
2019-05-10T10:41:08.265Z,1.93
2019-05-10T10:43:37.069Z,1.83
2019-05-10T10:46:04.421Z,2.10
2019-05-10T10:48:31.489Z,1.83
2019-05-10T10:51:00.363Z,1.90
2019-05-10T10:53:28.194Z,1.93
2019-05-10T10:56:02.481Z,1.80
2019-05-10T10:58:24.694Z,2.07
2019-05-10T11:00:51.782Z,2.10
2019-05-10T11:03:23.963Z,2.77
2019-05-10T11:05:47.851Z,2.00
2019-05-10T11:08:14.966Z,2.67
2019-05-10T11:10:43.026Z,2.17
2019-05-10T11:13:18.315Z,2.10
2019-05-10T11:15:41.783Z,2.00
2019-05-10T11:18:10.533Z,2.20
2019-05-10T11:20:41.987Z,1.70
2019-05-10T11:23:06.631Z,2.07
2019-05-10T11:25:33.660Z,1.80
2019-05-10T11:28:01.692Z,1.93
2019-05-10T11:30:29.106Z,1.50
2019-05-10T11:32:56.191Z,2.00
2019-05-10T11:35:30.331Z,1.90
2019-05-10T11:37:52.360Z,1.80
2019-05-10T11:40:29.822Z,2.00
2019-05-10T11:42:50.913Z,1.87
2019-05-10T11:45:18.160Z,1.50
2019-05-10T11:47:48.055Z,1.70
2019-05-10T11:50:27.568Z,1.80
2019-05-10T11:52:43.638Z,2.53
2019-05-10T11:55:11.735Z,1.97
2019-05-10T11:57:43.850Z,2.00
2019-05-10T12:00:14.721Z,1.70
2019-05-10T12:02:45.888Z,1.60
2019-05-10T12:05:16.648Z,1.83
2019-05-10T12:07:45.468Z,1.73
2019-05-10T12:10:16.989Z,2.10
2019-05-10T12:12:50.524Z,1.87
2019-05-10T12:15:04.681Z,1.90
2019-05-10T12:17:31.961Z,1.70
2019-05-10T12:20:02.239Z,1.67
2019-05-10T12:25:20.769Z,1.87
2019-05-10T12:26:16.349Z,2.10
2019-05-10T12:27:34.865Z,1.90
2019-05-10T12:29:59.538Z,2.10
2019-05-10T12:32:26.969Z,1.67
2019-05-10T12:34:56.513Z,1.77
2019-05-10T12:37:21.946Z,1.50
2019-05-10T12:39:52.892Z,1.90
2019-05-10T12:42:18.027Z,1.70
2019-05-10T12:44:47.989Z,1.87
2019-05-10T12:47:15.186Z,2.10
2019-05-10T12:49:42.277Z,1.40
2019-05-10T12:52:14.173Z,1.60
2019-05-10T12:54:38.294Z,1.90
2019-05-10T12:57:05.382Z,1.87
2019-05-10T12:59:34.941Z,1.70
2019-05-10T13:02:04.526Z,2.13
2019-05-10T13:04:40.527Z,1.90
2019-05-10T13:07:02.300Z,1.90
2019-05-10T13:09:40.046Z,2.10
2019-05-10T13:12:04.016Z,2.03
2019-05-10T13:14:29.203Z,1.60
2019-05-10T13:16:56.348Z,2.07
2019-05-10T13:19:23.423Z,1.67
2019-05-10T13:21:53.649Z,1.83
2019-05-10T13:24:19.472Z,1.90
2019-05-10T13:26:46.544Z,1.90
2019-05-10T13:29:13.613Z,1.93
2019-05-10T13:31:42.638Z,1.97
2019-05-10T13:34:09.688Z,1.90
2019-05-10T13:36:38.789Z,2.10
2019-05-10T13:39:06.114Z,1.70
2019-05-10T13:41:34.262Z,2.00
2019-05-10T13:44:04.953Z,1.97
2019-05-10T13:46:30.347Z,2.17
2019-05-10T13:48:57.433Z,2.10
2019-05-10T13:51:28.424Z,2.07
2019-05-10T13:53:58.928Z,2.00
2019-05-10T13:56:24.526Z,1.97
2019-05-10T13:58:51.678Z,2.10
2019-05-10T14:01:18.765Z,1.73
2019-05-10T14:03:53.793Z,1.97
2019-05-10T14:06:14.911Z,1.93
2019-05-10T14:08:47.592Z,1.67
2019-05-10T14:11:12.805Z,1.90
2019-05-10T14:13:41.396Z,2.57
2019-05-10T14:16:18.648Z,1.80
2019-05-10T14:18:40.834Z,1.77
2019-05-10T14:21:07.904Z,1.90
2019-05-10T14:23:37.200Z,1.90
2019-05-10T14:26:09.247Z,2.07
2019-05-10T14:28:32.979Z,1.90
2019-05-10T14:31:00.042Z,2.17
2019-05-10T14:33:28.952Z,1.77
2019-05-10T14:36:01.308Z,1.97
2019-05-10T14:38:25.160Z,2.47
2019-05-10T14:40:52.252Z,2.07
2019-05-10T14:43:19.340Z,2.23
2019-05-10T14:45:46.416Z,2.00
2019-05-10T14:48:13.479Z,2.50
2019-05-10T14:50:40.640Z,2.07
2019-05-10T14:53:07.708Z,2.20
2019-05-10T14:55:36.835Z,1.90
2019-05-10T14:58:03.799Z,2.50
2019-05-10T15:00:31.008Z,2.10
2019-05-10T15:03:02.065Z,1.90
2019-05-10T15:05:27.104Z,1.80
2019-05-10T15:07:54.196Z,2.13
2019-05-10T15:10:21.272Z,2.03
2019-05-10T15:12:49.474Z,1.87
2019-05-10T15:15:21.842Z,2.07
2019-05-10T15:18:02.139Z,2.47
2019-05-10T15:20:30.337Z,2.20
2019-05-10T15:23:01.680Z,2.20
2019-05-10T15:25:54.473Z,1.73
2019-05-10T15:28:05.380Z,1.97
2019-05-10T15:30:32.443Z,1.90
2019-05-10T15:33:01.874Z,2.57
2019-05-10T15:35:29.030Z,2.20
2019-05-10T15:37:57.198Z,2.37
2019-05-10T15:40:26.563Z,2.30
2019-05-10T15:42:53.639Z,2.60
2019-05-10T15:45:22.524Z,2.43
2019-05-10T15:47:51.764Z,2.30
2019-05-10T15:50:22.143Z,2.37
2019-05-10T15:52:49.232Z,2.27
2019-05-10T15:55:26.731Z,2.47
2019-05-10T15:57:51.684Z,2.37
2019-05-10T16:00:25.870Z,2.60
2019-05-10T16:02:54.508Z,2.47
2019-05-10T16:05:29.285Z,2.67
2019-05-10T16:07:51.507Z,2.43
2019-05-10T16:10:28.544Z,2.67
2019-05-10T16:12:53.803Z,2.37
2019-05-10T16:15:23.642Z,2.57
2019-05-10T16:17:53.622Z,3.20
2019-05-10T16:20:22.470Z,2.50
2019-05-10T16:22:49.548Z,2.90
2019-05-10T16:25:16.634Z,2.80
2019-05-10T16:27:46.678Z,2.90
2019-05-10T16:30:17.747Z,2.80
2019-05-10T16:32:43.394Z,2.93
2019-05-10T16:35:14.773Z,3.20
2019-05-10T16:37:40.426Z,2.87
2019-05-10T16:40:07.815Z,2.70
2019-05-10T16:42:36.066Z,3.60
2019-05-10T16:45:04.623Z,3.87
2019-05-10T16:47:31.684Z,2.77
2019-05-10T16:49:58.762Z,2.97
2019-05-10T16:52:27.727Z,3.03
2019-05-10T16:54:57.754Z,2.77
2019-05-10T16:57:23.836Z,2.83
2019-05-10T16:59:50.968Z,3.20
2019-05-10T17:02:17.988Z,3.60
2019-05-10T17:04:45.134Z,3.23
2019-05-10T17:07:12.786Z,3.33
2019-05-10T17:09:41.293Z,3.40
2019-05-10T17:12:08.373Z,3.47
2019-05-10T17:14:35.483Z,3.00
2019-05-10T17:17:02.587Z,3.90
2019-05-10T17:19:34.075Z,3.43
2019-05-10T17:22:02.727Z,3.47
2019-05-10T17:24:32.928Z,3.73
2019-05-10T17:27:01.146Z,3.57
2019-05-10T17:29:28.290Z,3.83
2019-05-10T17:31:55.366Z,3.53
2019-05-10T17:34:28.979Z,3.17
2019-05-10T17:36:57.792Z,3.43
2019-05-10T17:39:25.912Z,3.43
2019-05-10T17:41:57.545Z,3.63
2019-05-10T17:44:25.824Z,3.80
2019-05-10T17:46:55.502Z,4.23
2019-05-10T17:49:24.697Z,4.33
2019-05-10T17:51:51.859Z,4.00
2019-05-10T17:54:18.942Z,4.07
2019-05-10T17:56:48.327Z,3.90
2019-05-10T17:59:15.412Z,3.70
2019-05-10T18:01:42.473Z,3.37
2019-05-10T18:04:09.546Z,3.97
2019-05-10T18:07:03.765Z,3.70
2019-05-10T18:09:31.950Z,3.50
2019-05-10T18:11:59.046Z,3.70
2019-05-10T18:14:29.394Z,3.60
2019-05-10T18:16:57.834Z,3.33
2019-05-10T18:19:26.485Z,3.50
2019-05-10T18:21:55.056Z,3.50
2019-05-10T18:24:22.679Z,3.57
2019-05-10T18:26:49.888Z,3.27
2019-05-10T18:29:18.817Z,3.17
2019-05-10T18:31:55.108Z,3.37
2019-05-10T18:34:14.870Z,3.20
2019-05-10T18:36:51.524Z,3.57
2019-05-10T18:39:15.566Z,3.23
2019-05-10T18:41:41.501Z,3.37
2019-05-10T18:44:14.164Z,3.00
2019-05-10T18:46:39.120Z,3.80
2019-05-10T18:49:06.209Z,3.20
2019-05-10T18:51:38.708Z,3.47
2019-05-10T18:54:05.908Z,3.13
2019-05-10T18:56:33.272Z,3.50
2019-05-10T18:59:06.864Z,3.33
2019-05-10T19:01:32.793Z,3.40
2019-05-10T19:03:59.754Z,3.27
2019-05-10T19:06:26.829Z,3.57
2019-05-10T19:08:56.135Z,3.57
2019-05-10T19:11:25.323Z,3.83
2019-05-10T19:13:54.180Z,3.93
2019-05-10T19:16:25.852Z,3.37
2019-05-10T19:18:50.538Z,3.60
2019-05-10T19:21:17.654Z,3.77
2019-05-10T19:23:44.743Z,4.07
2019-05-10T19:26:11.916Z,4.10
2019-05-10T19:28:44.855Z,3.90
2019-05-10T19:31:13.406Z,4.50
2019-05-10T19:33:42.323Z,3.70
2019-05-10T19:36:13.142Z,4.20
2019-05-10T19:38:38.465Z,4.63
2019-05-10T19:41:05.644Z,5.10
2019-05-10T19:43:32.713Z,5.20
2019-05-10T19:45:59.927Z,5.50
2019-05-10T19:48:29.211Z,5.07
2019-05-10T19:50:56.023Z,5.03
2019-05-10T19:53:23.111Z,4.73
2019-05-10T19:55:51.528Z,5.40
2019-05-10T19:58:19.167Z,4.87
2019-05-10T20:00:46.264Z,5.30
2019-05-10T20:03:13.335Z,5.83
2019-05-10T20:05:55.924Z,6.07
2019-05-10T20:08:23.061Z,5.17
2019-05-10T20:10:55.146Z,6.20
2019-05-10T20:13:22.243Z,5.90
2019-05-10T20:15:49.351Z,5.70
2019-05-10T20:18:16.459Z,6.40
2019-05-10T20:20:46.398Z,5.80
2019-05-10T20:23:13.499Z,6.50
2019-05-10T20:25:40.607Z,5.60
2019-05-10T20:28:07.711Z,5.40
2019-05-10T20:30:34.788Z,5.73
2019-05-10T20:33:01.984Z,6.53
2019-05-10T20:35:29.059Z,6.67
2019-05-10T20:38:02.229Z,6.23
2019-05-10T20:40:25.203Z,6.67
2019-05-10T20:42:52.363Z,6.30
2019-05-10T20:45:23.468Z,5.80
2019-05-10T20:47:50.626Z,5.93
2019-05-10T20:50:19.010Z,5.67
2019-05-10T20:52:46.242Z,6.83
2019-05-10T20:55:16.862Z,6.47
2019-05-10T20:57:44.000Z,6.43
2019-05-10T21:00:11.202Z,5.67
2019-05-10T21:02:38.385Z,6.33
2019-05-10T21:05:08.199Z,5.53
2019-05-10T21:07:35.266Z,5.17
2019-05-10T21:10:02.385Z,5.67
2019-05-10T21:12:29.476Z,6.40
2019-05-10T21:14:58.605Z,5.13
2019-05-10T21:17:25.984Z,6.30
2019-05-10T21:19:53.052Z,6.83
2019-05-10T21:22:20.175Z,6.60
2019-05-10T21:24:49.480Z,6.30
2019-05-10T21:27:16.474Z,6.60
2019-05-10T21:29:43.562Z,7.00
2019-05-10T21:32:12.446Z,6.60
2019-05-10T21:34:39.564Z,6.90
2019-05-10T21:37:06.658Z,6.53
2019-05-10T21:39:33.853Z,7.30
2019-05-10T21:42:01.010Z,6.73
2019-05-10T21:44:29.218Z,6.30
2019-05-10T21:46:56.306Z,6.27
2019-05-10T21:49:23.387Z,6.37
2019-05-10T21:51:50.473Z,7.90
2019-05-10T21:54:17.552Z,6.30
2019-05-10T21:56:44.723Z,6.60
2019-05-10T21:59:12.895Z,7.10
2019-05-10T22:01:40.044Z,7.13
2019-05-10T22:04:07.124Z,6.63
2019-05-10T22:06:34.643Z,7.27
2019-05-10T22:09:01.732Z,6.27
2019-05-10T22:11:28.802Z,7.10
2019-05-10T22:13:55.882Z,6.60
2019-05-10T22:16:22.959Z,7.67
2019-05-10T22:18:58.674Z,7.27
2019-05-10T22:21:25.790Z,6.33
2019-05-10T22:23:52.865Z,6.80
2019-05-10T22:26:22.693Z,6.53
2019-05-10T22:28:49.847Z,7.70
2019-05-10T22:31:16.922Z,6.30
2019-05-10T22:33:44.002Z,6.87
2019-05-10T22:36:11.067Z,7.43
2019-05-10T22:38:38.152Z,6.83
2019-05-10T22:41:06.239Z,7.20
2019-05-10T22:43:34.423Z,7.80
2019-05-10T22:46:01.511Z,6.93
2019-05-10T22:48:28.654Z,6.80
2019-05-10T22:50:55.781Z,7.97
2019-05-10T22:53:22.883Z,8.27
2019-05-10T22:55:51.155Z,7.17
2019-05-10T22:58:19.346Z,7.50
2019-05-10T23:00:46.428Z,6.97
2019-05-10T23:03:13.535Z,7.27
2019-05-10T23:05:40.620Z,6.93
2019-05-10T23:08:07.724Z,7.70
2019-05-10T23:10:34.810Z,7.53
2019-05-10T23:13:01.897Z,7.10
2019-05-10T23:15:28.982Z,6.47
2019-05-10T23:17:56.071Z,6.80
2019-05-10T23:20:23.195Z,7.57
2019-05-10T23:22:50.308Z,6.57
2019-05-10T23:25:17.385Z,6.63
2019-05-10T23:27:44.471Z,6.70
2019-05-10T23:30:11.769Z,6.70
2019-05-10T23:32:38.904Z,7.47
2019-05-10T23:35:06.198Z,6.27
2019-05-10T23:37:33.279Z,6.83
2019-05-10T23:40:00.387Z,7.00
2019-05-10T23:42:27.463Z,6.53
2019-05-10T23:44:54.545Z,7.87
2019-05-10T23:47:21.694Z,6.70
2019-05-10T23:49:48.763Z,7.07
2019-05-10T23:52:15.839Z,7.23
2019-05-10T23:54:44.123Z,6.23
2019-05-10T23:57:11.220Z,7.43
2019-05-10T23:59:38.311Z,6.93
